createdAt,value
2018-07-16T00:01:12.172Z,24.30
2018-07-16T00:03:40.419Z,24.30
2018-07-16T00:06:08.751Z,24.20
2018-07-16T00:08:37.000Z,24.10
2018-07-16T00:11:05.335Z,24.10
2018-07-16T00:13:33.634Z,24.10
2018-07-16T00:16:03.694Z,24.10
2018-07-16T00:18:32.415Z,24.10
2018-07-16T00:21:00.712Z,24.10
2018-07-16T00:23:29.144Z,24.00
2018-07-16T00:25:57.427Z,24.00
2018-07-16T00:28:26.771Z,24.00
2018-07-16T00:30:55.279Z,23.90
2018-07-16T00:33:23.645Z,23.90
2018-07-16T00:35:54.098Z,23.90
2018-07-16T00:38:22.649Z,23.90
2018-07-16T00:40:51.207Z,23.80
2018-07-16T00:43:19.408Z,23.80
2018-07-16T00:45:47.735Z,23.80
2018-07-16T00:48:15.935Z,23.70
2018-07-16T00:50:44.234Z,23.70
2018-07-16T00:53:12.555Z,23.70
2018-07-16T00:55:40.833Z,23.70
2018-07-16T00:58:09.012Z,23.60
2018-07-16T01:00:37.349Z,23.60
2018-07-16T01:03:05.567Z,23.60
2018-07-16T01:05:33.872Z,23.60
2018-07-16T01:08:02.161Z,23.50
2018-07-16T01:10:30.416Z,23.50
2018-07-16T01:12:58.610Z,23.40
2018-07-16T01:15:26.871Z,23.40
2018-07-16T01:17:55.168Z,23.40
2018-07-16T01:20:23.427Z,23.40
2018-07-16T01:22:51.694Z,23.40
2018-07-16T01:25:19.951Z,23.30
2018-07-16T01:27:48.247Z,23.30
2018-07-16T01:30:17.744Z,23.20
2018-07-16T01:32:46.095Z,23.20
2018-07-16T01:35:14.345Z,23.20
2018-07-16T01:37:43.748Z,23.10
2018-07-16T01:40:12.053Z,23.10
2018-07-16T01:42:40.313Z,23.10
2018-07-16T01:45:08.718Z,23.10
2018-07-16T01:47:36.995Z,23.00
2018-07-16T01:50:05.233Z,23.00
2018-07-16T01:52:33.492Z,22.90
2018-07-16T01:55:01.817Z,22.90
2018-07-16T01:57:30.097Z,22.80
2018-07-16T01:59:58.408Z,22.80
2018-07-16T02:02:26.684Z,22.80
2018-07-16T02:04:54.947Z,22.80
2018-07-16T02:09:56.335Z,22.70
2018-07-16T02:12:25.199Z,22.70
2018-07-16T02:14:53.951Z,22.70
2018-07-16T02:17:23.166Z,22.70
2018-07-16T02:19:51.823Z,22.70
2018-07-16T02:22:21.039Z,22.70
2018-07-16T02:24:49.670Z,22.70
2018-07-16T02:27:18.229Z,22.70
2018-07-16T02:29:46.507Z,22.70
2018-07-16T02:32:14.730Z,22.60
2018-07-16T02:34:42.953Z,22.60
2018-07-16T02:37:11.290Z,22.60
2018-07-16T02:39:39.585Z,22.60
2018-07-16T02:42:07.890Z,22.60
2018-07-16T02:44:36.136Z,22.60
2018-07-16T02:47:04.408Z,22.60
2018-07-16T02:49:32.816Z,22.60
2018-07-16T02:52:01.175Z,22.50
2018-07-16T02:54:29.481Z,22.50
2018-07-16T02:56:57.739Z,22.50
2018-07-16T02:59:25.982Z,22.40
2018-07-16T03:01:54.202Z,22.40
2018-07-16T03:04:22.437Z,22.40
2018-07-16T03:06:50.720Z,22.30
2018-07-16T03:09:18.920Z,22.30
2018-07-16T03:11:47.181Z,22.30
2018-07-16T03:14:15.459Z,22.30
2018-07-16T03:16:43.716Z,22.30
2018-07-16T03:19:11.968Z,22.30
2018-07-16T03:21:40.237Z,22.30
2018-07-16T03:24:08.460Z,22.20
2018-07-16T03:26:36.994Z,22.20
2018-07-16T03:29:05.296Z,22.20
2018-07-16T03:31:33.573Z,22.20
2018-07-16T03:34:02.196Z,22.20
2018-07-16T03:36:30.450Z,22.20
2018-07-16T03:38:58.693Z,22.20
2018-07-16T03:41:27.002Z,22.10
2018-07-16T03:43:55.268Z,22.10
2018-07-16T03:46:23.520Z,22.10
2018-07-16T03:48:51.745Z,22.10
2018-07-16T03:51:19.985Z,22.10
2018-07-16T03:53:48.422Z,22.00
2018-07-16T03:56:16.651Z,22.00
2018-07-16T03:58:44.982Z,22.00
2018-07-16T04:03:41.199Z,22.00
2018-07-16T04:06:09.600Z,22.00
2018-07-16T04:11:05.806Z,22.00
2018-07-16T04:13:34.089Z,22.00
2018-07-16T04:16:02.323Z,22.00
2018-07-16T04:18:30.566Z,22.00
2018-07-16T04:20:58.816Z,22.00
2018-07-16T04:23:28.612Z,22.00
2018-07-16T04:25:59.729Z,22.00
2018-07-16T04:28:28.506Z,22.00
2018-07-16T04:30:57.911Z,21.90
2018-07-16T04:33:35.868Z,21.90
2018-07-16T04:36:05.032Z,21.90
2018-07-16T04:38:33.376Z,21.90
2018-07-16T04:41:01.612Z,21.90
2018-07-16T04:43:29.877Z,21.90
2018-07-16T04:45:58.099Z,21.90
2018-07-16T04:48:26.459Z,21.90
2018-07-16T04:50:54.836Z,21.90
2018-07-16T04:53:23.217Z,21.90
2018-07-16T04:55:51.584Z,21.90
2018-07-16T04:58:19.898Z,21.90
2018-07-16T05:00:48.199Z,22.00
2018-07-16T05:03:16.479Z,22.00
2018-07-16T05:05:44.727Z,22.00
2018-07-16T05:08:12.966Z,22.10
2018-07-16T05:10:41.260Z,22.10
2018-07-16T05:13:09.528Z,22.10
2018-07-16T05:15:37.824Z,22.10
2018-07-16T05:18:06.047Z,22.10
2018-07-16T05:20:34.293Z,22.10
2018-07-16T05:23:02.671Z,22.20
2018-07-16T05:25:31.200Z,22.20
2018-07-16T05:27:59.590Z,22.10
2018-07-16T05:30:27.990Z,22.10
2018-07-16T05:32:56.314Z,22.10
2018-07-16T05:35:24.769Z,22.10
2018-07-16T05:37:52.998Z,22.20
2018-07-16T05:40:21.213Z,22.20
2018-07-16T05:42:49.431Z,22.30
2018-07-16T05:45:17.678Z,22.40
2018-07-16T05:47:45.873Z,22.50
2018-07-16T05:50:14.064Z,22.70
2018-07-16T05:52:42.291Z,22.70
2018-07-16T05:55:10.513Z,22.70
2018-07-16T05:57:38.676Z,22.70
2018-07-16T06:00:06.980Z,22.70
2018-07-16T06:02:35.149Z,22.70
2018-07-16T06:05:03.321Z,22.70
2018-07-16T06:07:31.554Z,22.80
2018-07-16T06:09:59.730Z,23.00
2018-07-16T06:12:27.919Z,23.20
2018-07-16T06:15:03.003Z,23.40
2018-07-16T06:19:59.173Z,23.40
2018-07-16T06:22:27.407Z,23.40
2018-07-16T06:24:55.631Z,23.50
2018-07-16T06:27:23.841Z,23.50
2018-07-16T06:29:52.114Z,23.50
2018-07-16T06:32:20.369Z,23.50
2018-07-16T06:34:48.572Z,23.60
2018-07-16T06:37:16.837Z,23.60
2018-07-16T06:39:45.182Z,23.60
2018-07-16T06:42:13.311Z,23.70
2018-07-16T06:44:41.579Z,23.70
2018-07-16T06:47:09.780Z,23.80
2018-07-16T06:49:38.012Z,23.70
2018-07-16T06:52:06.240Z,23.70
2018-07-16T06:54:34.517Z,23.70
2018-07-16T06:57:02.795Z,23.70
2018-07-16T06:59:31.126Z,23.70
2018-07-16T07:01:59.369Z,23.70
2018-07-16T07:04:27.580Z,23.70
2018-07-16T07:06:55.838Z,23.70
2018-07-16T07:09:24.070Z,23.60
2018-07-16T07:11:52.314Z,23.70
2018-07-16T07:14:20.536Z,23.80
2018-07-16T07:16:48.752Z,23.70
2018-07-16T07:19:17.004Z,23.80
2018-07-16T07:21:45.258Z,23.80
2018-07-16T07:24:13.448Z,23.90
2018-07-16T07:26:41.655Z,24.10
2018-07-16T07:29:09.868Z,24.10
2018-07-16T07:31:38.087Z,24.20
2018-07-16T07:34:06.422Z,24.50
2018-07-16T07:36:35.752Z,25.00
2018-07-16T07:39:04.943Z,25.30
2018-07-16T07:41:33.149Z,25.70
2018-07-16T07:44:01.400Z,25.20
2018-07-16T07:46:29.614Z,25.10
2018-07-16T07:48:58.005Z,25.00
2018-07-16T07:51:26.284Z,25.00
2018-07-16T07:53:54.503Z,24.90
2018-07-16T07:56:22.750Z,24.90
2018-07-16T07:58:52.234Z,24.90
2018-07-16T08:01:20.742Z,24.90
2018-07-16T08:03:49.066Z,25.00
2018-07-16T08:06:17.287Z,25.20
2018-07-16T08:08:45.502Z,25.50
2018-07-16T08:11:13.747Z,25.90
2018-07-16T08:13:42.011Z,26.40
2018-07-16T08:16:10.254Z,27.00
2018-07-16T08:18:38.486Z,27.40
2018-07-16T08:21:06.860Z,28.20
2018-07-16T08:23:35.156Z,30.00
2018-07-16T08:26:03.535Z,32.60
2018-07-16T08:28:31.775Z,35.10
2018-07-16T08:31:00.021Z,37.30
2018-07-16T08:33:34.676Z,39.00
2018-07-16T08:36:02.862Z,40.40
2018-07-16T08:38:31.182Z,41.30
2018-07-16T08:40:59.461Z,42.10
2018-07-16T08:43:27.718Z,42.40
2018-07-16T08:45:55.995Z,42.60
2018-07-16T08:48:24.280Z,42.80
2018-07-16T08:50:52.591Z,42.90
2018-07-16T08:53:20.827Z,43.00
2018-07-16T08:55:49.178Z,43.10
2018-07-16T08:58:17.349Z,43.20
2018-07-16T09:00:45.729Z,42.90
2018-07-16T09:03:13.949Z,42.40
2018-07-16T09:05:42.301Z,42.20
2018-07-16T09:08:10.523Z,42.10
2018-07-16T09:10:38.762Z,41.60
2018-07-16T09:13:07.122Z,40.80
2018-07-16T09:15:35.231Z,39.40
2018-07-16T09:18:03.458Z,37.80
2018-07-16T09:20:32.063Z,36.30
2018-07-16T09:23:00.250Z,34.40
2018-07-16T09:25:28.505Z,32.70
2018-07-16T09:27:56.663Z,31.70
2018-07-16T09:30:24.874Z,31.40
2018-07-16T09:32:53.815Z,31.10
2018-07-16T09:35:22.133Z,31.00
2018-07-16T09:37:50.550Z,30.80
2018-07-16T09:40:18.798Z,30.40
2018-07-16T09:42:47.018Z,30.20
2018-07-16T09:45:15.251Z,30.00
2018-07-16T09:47:43.467Z,29.90
2018-07-16T09:50:11.691Z,29.70
2018-07-16T09:52:39.968Z,29.50
2018-07-16T09:55:08.546Z,29.30
2018-07-16T09:57:36.827Z,29.20
2018-07-16T10:00:05.345Z,29.10
2018-07-16T10:02:33.611Z,28.90
2018-07-16T10:05:01.868Z,29.00
2018-07-16T10:07:30.133Z,29.10
2018-07-16T10:09:58.328Z,29.20
2018-07-16T10:12:26.518Z,29.30
2018-07-16T10:14:54.731Z,29.20
2018-07-16T10:17:22.962Z,29.20
2018-07-16T10:19:51.191Z,29.30
2018-07-16T10:22:19.887Z,29.40
2018-07-16T10:24:48.135Z,29.40
2018-07-16T10:27:16.406Z,29.40
2018-07-16T10:29:44.600Z,29.50
2018-07-16T10:32:12.871Z,29.50
2018-07-16T10:34:41.066Z,29.50
2018-07-16T10:37:09.283Z,29.50
2018-07-16T10:39:37.624Z,29.60
2018-07-16T10:42:05.932Z,29.50
2018-07-16T10:44:34.132Z,29.50
2018-07-16T10:47:02.483Z,28.00
2018-07-16T10:49:30.695Z,29.70
2018-07-16T10:51:59.430Z,29.80
2018-07-16T10:54:27.745Z,29.80
2018-07-16T10:56:55.966Z,29.80
2018-07-16T10:59:24.196Z,29.80
2018-07-16T11:01:52.437Z,29.80
2018-07-16T11:04:20.646Z,29.90
2018-07-16T11:06:48.966Z,29.90
2018-07-16T11:09:17.247Z,30.00
2018-07-16T11:11:45.517Z,30.10
2018-07-16T11:14:13.753Z,30.10
2018-07-16T11:16:41.974Z,30.10
2018-07-16T11:19:10.191Z,30.20
2018-07-16T11:21:38.385Z,30.20
2018-07-16T11:24:07.019Z,30.30
2018-07-16T11:26:35.202Z,30.30
2018-07-16T11:29:03.426Z,30.40
2018-07-16T11:31:31.868Z,30.40
2018-07-16T11:34:00.104Z,30.40
2018-07-16T11:36:28.339Z,30.40
2018-07-16T11:38:56.580Z,30.40
2018-07-16T11:41:24.835Z,30.30
2018-07-16T11:43:53.048Z,30.20
2018-07-16T11:46:21.311Z,28.90
2018-07-16T11:48:49.562Z,30.00
2018-07-16T11:51:17.816Z,30.00
2018-07-16T11:53:46.090Z,29.90
2018-07-16T11:56:14.326Z,30.00
2018-07-16T11:58:42.554Z,30.30
2018-07-16T12:01:10.804Z,30.20
2018-07-16T12:03:39.035Z,30.20
2018-07-16T12:06:12.811Z,30.40
2018-07-16T12:08:41.048Z,30.60
2018-07-16T12:11:09.364Z,30.70
2018-07-16T12:13:38.056Z,30.80
2018-07-16T12:16:06.313Z,30.70
2018-07-16T12:18:34.798Z,30.60
2018-07-16T12:21:03.508Z,30.70
2018-07-16T12:23:31.763Z,30.80
2018-07-16T12:26:00.107Z,30.90
2018-07-16T12:28:28.518Z,31.10
2018-07-16T12:30:56.820Z,31.20
2018-07-16T12:33:25.084Z,31.30
2018-07-16T12:35:53.391Z,31.30
2018-07-16T12:38:21.637Z,31.30
2018-07-16T12:40:49.925Z,31.30
2018-07-16T12:43:18.167Z,31.30
2018-07-16T12:45:46.418Z,31.20
2018-07-16T12:48:14.760Z,31.20
2018-07-16T12:50:43.095Z,31.10
2018-07-16T12:53:11.363Z,31.00
2018-07-16T12:55:39.560Z,31.10
2018-07-16T12:58:07.794Z,31.20
2018-07-16T13:00:36.040Z,31.10
2018-07-16T13:03:04.686Z,31.10
2018-07-16T13:05:33.286Z,31.20
2018-07-16T13:08:01.499Z,31.30
2018-07-16T13:10:29.874Z,31.20
2018-07-16T13:12:58.838Z,31.00
2018-07-16T13:15:27.077Z,30.90
2018-07-16T13:17:55.294Z,31.10
2018-07-16T13:20:23.588Z,31.30
2018-07-16T13:22:51.797Z,31.40
2018-07-16T13:25:20.028Z,31.40
2018-07-16T13:27:48.342Z,31.50
2018-07-16T13:30:16.589Z,31.60
2018-07-16T13:32:44.858Z,31.60
2018-07-16T13:35:13.105Z,31.50
2018-07-16T13:37:41.306Z,31.40
2018-07-16T13:40:09.576Z,31.30
2018-07-16T13:42:37.838Z,31.30
2018-07-16T13:45:06.094Z,31.50
2018-07-16T13:47:34.289Z,31.50
2018-07-16T13:50:02.785Z,31.60
2018-07-16T13:52:31.066Z,31.80
2018-07-16T13:54:59.318Z,31.90
2018-07-16T13:57:27.695Z,32.00
2018-07-16T13:59:55.931Z,32.10
2018-07-16T14:02:24.183Z,32.00
2018-07-16T14:04:52.443Z,32.00
2018-07-16T14:07:20.634Z,31.90
2018-07-16T14:09:49.730Z,31.90
2018-07-16T14:12:18.070Z,31.70
2018-07-16T14:14:46.238Z,31.80
2018-07-16T14:17:14.511Z,32.00
2018-07-16T14:19:42.783Z,31.80
2018-07-16T14:22:10.992Z,31.70
2018-07-16T14:24:39.197Z,31.50
2018-07-16T14:27:07.727Z,31.50
2018-07-16T14:29:36.039Z,31.40
2018-07-16T14:32:04.258Z,31.60
2018-07-16T14:34:32.512Z,31.70
2018-07-16T14:37:00.756Z,31.70
2018-07-16T14:39:29.042Z,31.60
2018-07-16T14:41:57.248Z,31.40
2018-07-16T14:44:25.483Z,31.50
2018-07-16T14:46:53.726Z,31.70
2018-07-16T14:49:21.989Z,31.80
2018-07-16T14:51:50.208Z,32.00
2018-07-16T14:54:18.421Z,32.00
2018-07-16T14:56:46.726Z,31.80
2018-07-16T15:01:42.937Z,32.10
2018-07-16T15:04:11.278Z,32.20
2018-07-16T15:06:39.634Z,32.10
2018-07-16T15:09:09.072Z,32.10
2018-07-16T15:11:37.346Z,32.00
2018-07-16T15:14:05.718Z,32.00
2018-07-16T15:16:34.107Z,32.00
2018-07-16T15:19:02.608Z,31.90
2018-07-16T15:21:31.038Z,32.00
2018-07-16T15:23:59.144Z,32.30
2018-07-16T15:26:27.409Z,32.40
2018-07-16T15:28:55.646Z,32.30
2018-07-16T15:31:23.962Z,32.20
2018-07-16T15:33:52.211Z,32.10
2018-07-16T15:36:20.411Z,32.20
2018-07-16T15:38:48.625Z,32.00
2018-07-16T15:41:16.941Z,31.60
2018-07-16T15:43:45.142Z,31.50
2018-07-16T15:46:13.362Z,31.40
2018-07-16T15:48:41.810Z,31.30
2018-07-16T15:51:10.023Z,31.20
2018-07-16T15:53:38.589Z,31.30
2018-07-16T15:56:06.890Z,31.40
2018-07-16T15:58:35.095Z,31.60
2018-07-16T16:01:03.580Z,31.70
2018-07-16T16:03:31.881Z,31.70
2018-07-16T16:06:00.127Z,31.60
2018-07-16T16:08:28.349Z,31.70
2018-07-16T16:10:56.944Z,31.80
2018-07-16T16:13:25.184Z,31.90
2018-07-16T16:15:53.490Z,31.80
2018-07-16T16:18:21.698Z,31.60
2018-07-16T16:20:49.998Z,31.60
2018-07-16T16:23:18.348Z,31.60
2018-07-16T16:25:46.535Z,31.80
2018-07-16T16:28:15.592Z,31.90
2018-07-16T16:30:43.844Z,31.80
2018-07-16T16:33:12.068Z,31.80
2018-07-16T16:35:40.314Z,31.70
2018-07-16T16:38:08.606Z,31.50
2018-07-16T16:40:36.802Z,31.40
2018-07-16T16:43:05.157Z,31.30
2018-07-16T16:45:33.330Z,31.40
2018-07-16T16:48:01.523Z,31.40
2018-07-16T16:50:29.734Z,31.50
2018-07-16T16:52:58.048Z,31.70
2018-07-16T16:55:26.207Z,31.90
2018-07-16T16:57:54.398Z,31.90
2018-07-16T17:00:22.600Z,31.90
2018-07-16T17:02:50.854Z,32.80
2018-07-16T17:05:19.033Z,31.90
2018-07-16T17:07:47.274Z,31.90
2018-07-16T17:10:15.518Z,31.90
2018-07-16T17:12:43.735Z,31.70
2018-07-16T17:15:11.995Z,31.70
2018-07-16T17:17:40.226Z,31.70
2018-07-16T17:20:08.480Z,31.70
2018-07-16T17:22:36.658Z,31.70
2018-07-16T17:25:05.168Z,31.60
2018-07-16T17:27:33.466Z,31.60
2018-07-16T17:30:01.731Z,31.70
2018-07-16T17:32:29.972Z,31.60
2018-07-16T17:34:58.206Z,31.60
2018-07-16T17:37:26.455Z,31.60
2018-07-16T17:39:54.775Z,31.60
2018-07-16T17:42:23.080Z,31.40
2018-07-16T17:44:51.315Z,31.40
2018-07-16T17:47:19.538Z,31.30
2018-07-16T17:49:47.979Z,31.30
2018-07-16T17:52:16.064Z,31.30
2018-07-16T17:54:44.302Z,31.20
2018-07-16T17:57:12.553Z,31.20
2018-07-16T17:59:40.745Z,31.20
2018-07-16T18:02:09.042Z,31.10
2018-07-16T18:04:37.225Z,31.10
2018-07-16T18:07:05.456Z,31.00
2018-07-16T18:09:33.713Z,31.00
2018-07-16T18:12:01.930Z,30.90
2018-07-16T18:14:30.199Z,30.80
2018-07-16T18:16:58.492Z,30.70
2018-07-16T18:19:26.688Z,30.70
2018-07-16T18:21:54.906Z,30.60
2018-07-16T18:24:23.140Z,30.50
2018-07-16T18:26:51.394Z,30.50
2018-07-16T18:29:19.597Z,30.40
2018-07-16T18:31:47.806Z,30.30
2018-07-16T18:34:16.045Z,30.30
2018-07-16T18:36:44.237Z,30.20
2018-07-16T18:39:12.554Z,30.10
2018-07-16T18:41:40.755Z,30.10
2018-07-16T18:44:08.986Z,30.10
2018-07-16T18:46:37.179Z,30.10
2018-07-16T18:49:05.434Z,30.10
2018-07-16T18:51:33.634Z,30.00
2018-07-16T18:54:01.820Z,30.00
2018-07-16T18:56:30.314Z,30.00
2018-07-16T18:58:58.570Z,30.00
2018-07-16T19:01:26.790Z,29.90
2018-07-16T19:03:55.001Z,29.90
2018-07-16T19:06:23.302Z,29.90
2018-07-16T19:08:51.543Z,29.80
2018-07-16T19:11:19.793Z,29.80
2018-07-16T19:13:48.237Z,29.70
2018-07-16T19:16:16.443Z,29.60
2018-07-16T19:18:44.678Z,29.60
2018-07-16T19:21:12.906Z,29.50
2018-07-16T19:23:41.166Z,29.40
2018-07-16T19:26:09.431Z,29.30
2018-07-16T19:28:37.744Z,29.30
2018-07-16T19:31:06.801Z,29.20
2018-07-16T19:33:34.981Z,29.10
2018-07-16T19:36:03.206Z,29.10
2018-07-16T19:38:31.843Z,29.10
2018-07-16T19:41:00.216Z,29.00
2018-07-16T19:43:28.410Z,28.90
2018-07-16T19:45:56.624Z,28.80
2018-07-16T19:48:24.863Z,28.80
2018-07-16T19:50:53.182Z,28.80
2018-07-16T19:53:21.480Z,28.70
2018-07-16T19:55:49.716Z,28.60
2018-07-16T19:58:17.987Z,28.50
2018-07-16T20:00:46.238Z,28.50
2018-07-16T20:03:14.497Z,28.40
2018-07-16T20:05:42.782Z,28.30
2018-07-16T20:08:11.062Z,28.20
2018-07-16T20:10:39.604Z,28.20
2018-07-16T20:13:07.906Z,28.10
2018-07-16T20:15:36.344Z,28.10
2018-07-16T20:18:04.667Z,28.00
2018-07-16T20:20:42.908Z,28.00
2018-07-16T20:23:11.163Z,28.00
2018-07-16T20:25:39.362Z,28.00
2018-07-16T20:28:07.663Z,28.00
2018-07-16T20:30:36.266Z,28.00
2018-07-16T20:33:04.613Z,27.90
2018-07-16T20:35:32.955Z,27.90
2018-07-16T20:38:01.231Z,27.90
2018-07-16T20:40:29.565Z,27.80
2018-07-16T20:42:57.857Z,27.70
2018-07-16T20:45:26.742Z,27.60
2018-07-16T20:47:54.935Z,27.60
2018-07-16T20:50:23.136Z,27.60
2018-07-16T20:52:52.015Z,27.60
2018-07-16T20:55:20.209Z,27.50
2018-07-16T20:57:48.543Z,27.50
2018-07-16T21:00:16.848Z,27.50
2018-07-16T21:02:45.171Z,27.50
2018-07-16T21:05:13.443Z,27.40
2018-07-16T21:07:41.745Z,27.40
2018-07-16T21:10:09.957Z,27.30
2018-07-16T21:12:38.195Z,27.30
2018-07-16T21:15:06.499Z,27.30
2018-07-16T21:17:34.772Z,27.20
2018-07-16T21:20:03.099Z,27.20
2018-07-16T21:22:31.359Z,27.20
2018-07-16T21:24:59.591Z,27.10
2018-07-16T21:27:27.880Z,27.10
2018-07-16T21:29:56.149Z,27.00
2018-07-16T21:32:24.343Z,27.00
2018-07-16T21:34:52.570Z,27.00
2018-07-16T21:37:20.838Z,27.00
2018-07-16T21:39:49.120Z,26.90
2018-07-16T21:42:17.439Z,26.80
2018-07-16T21:44:45.886Z,26.80
2018-07-16T21:47:14.124Z,26.80
2018-07-16T21:49:42.394Z,26.70
2018-07-16T21:52:10.628Z,26.70
2018-07-16T21:54:38.854Z,26.70
2018-07-16T21:57:07.532Z,26.70
2018-07-16T21:59:35.790Z,26.70
2018-07-16T22:02:04.043Z,26.60
2018-07-16T22:04:33.307Z,26.60
2018-07-16T22:07:01.546Z,26.60
2018-07-16T22:09:29.766Z,26.60
2018-07-16T22:11:58.009Z,26.50
2018-07-16T22:14:26.298Z,26.50
2018-07-16T22:16:54.562Z,26.50
2018-07-16T22:19:22.882Z,26.40
2018-07-16T22:21:51.185Z,26.40
2018-07-16T22:24:19.414Z,26.40
2018-07-16T22:26:47.666Z,26.30
2018-07-16T22:29:15.978Z,26.30
2018-07-16T22:31:44.259Z,26.30
2018-07-16T22:34:12.447Z,26.30
2018-07-16T22:36:40.748Z,26.20
2018-07-16T22:39:09.576Z,26.10
2018-07-16T22:41:37.859Z,26.10
2018-07-16T22:44:06.122Z,26.10
2018-07-16T22:46:34.448Z,26.00
2018-07-16T22:49:02.720Z,26.00
2018-07-16T22:51:30.964Z,26.00
2018-07-16T22:53:59.210Z,25.90
2018-07-16T22:56:27.480Z,25.90
2018-07-16T22:58:55.747Z,25.90
2018-07-16T23:01:23.985Z,25.90
2018-07-16T23:03:52.371Z,25.80
2018-07-16T23:06:20.639Z,25.80
2018-07-16T23:08:48.887Z,25.80
2018-07-16T23:11:17.176Z,25.70
2018-07-16T23:13:45.492Z,25.70
2018-07-16T23:16:13.771Z,25.70
2018-07-16T23:18:42.012Z,25.70
2018-07-16T23:21:15.630Z,25.70
2018-07-16T23:23:43.905Z,25.60
2018-07-16T23:26:12.138Z,25.60
2018-07-16T23:28:40.391Z,25.60
2018-07-16T23:31:08.591Z,25.50
2018-07-16T23:33:36.821Z,25.50
2018-07-16T23:36:05.158Z,25.40
2018-07-16T23:38:33.377Z,25.40
2018-07-16T23:41:02.911Z,25.40
2018-07-16T23:43:31.149Z,25.40
2018-07-16T23:45:59.411Z,25.30
2018-07-16T23:48:27.615Z,25.20
2018-07-16T23:50:55.846Z,25.20
2018-07-16T23:53:24.018Z,25.10
2018-07-16T23:55:52.231Z,25.00
2018-07-16T23:58:20.526Z,25.00
